Time;durP1;ratioP1;P1;durP2;ratioP2;P2;SDS_P1;SDS_P2;PMS_P1;PMS_P2;Temp;Humidity;BMP_temperature;BMP_pressure;BME280_temperature;BME280_humidity;BME280_pressure;Samples;Min_cycle;Max_cycle;Signal;HPM_P1;HPM_P2
2024/02/24 00:02:03;;;;;;;0.10;0.10;;;5.70;99.90;;;;;;4955070;28;20034;-91
2024/02/24 00:04:29;;;;;;;0.10;0.10;;;6.00;99.90;;;;;;4955806;28;21328;-89
2024/02/24 00:06:55;;;;;;;0.10;0.10;;;5.90;99.90;;;;;;4970559;28;20031;-90
2024/02/24 00:09:21;;;;;;;0.10;0.10;;;;;;;;;;4956536;28;20437;-91
2024/02/24 00:11:46;;;;;;;0.10;0.10;;;6.00;99.90;;;;;;4959439;28;20043;-90
2024/02/24 00:14:12;;;;;;;0.10;0.10;;;;;;;;;;4958215;28;20039;-90
2024/02/24 00:16:38;;;;;;;0.10;0.10;;;;;;;;;;4956711;28;20035;-90
2024/02/24 00:19:05;;;;;;;0.10;0.10;;;6.00;99.90;;;;;;4954519;28;20110;-90
2024/02/24 00:21:30;;;;;;;0.10;0.10;;;5.80;99.90;;;;;;4956900;28;20031;-91
2024/02/24 00:23:56;;;;;;;0.00;0.00;;;;;;;;;;4953321;28;20031;-89
2024/02/24 00:26:22;;;;;;;0.10;0.10;;;6.00;99.90;;;;;;4955040;28;20482;-90
2024/02/24 00:28:48;;;;;;;0.10;0.10;;;;;;;;;;4957515;28;20110;-90
2024/02/24 00:31:13;;;;;;;0.00;0.00;;;5.90;99.90;;;;;;4954513;28;20031;-90
2024/02/24 00:33:39;;;;;;;0.10;0.10;;;5.90;99.90;;;;;;4971568;28;20043;-91
2024/02/24 00:36:04;;;;;;;0.10;0.10;;;5.80;99.90;;;;;;4954347;28;20031;-90
2024/02/24 00:38:30;;;;;;;0.10;0.10;;;;;;;;;;4966025;28;20039;-91
2024/02/24 00:40:56;;;;;;;0.00;0.00;;;;;;;;;;4957837;28;20027;-90
2024/02/24 00:43:22;;;;;;;0.10;0.10;;;;;;;;;;4959282;28;20035;-90
2024/02/24 00:45:48;;;;;;;0.00;0.00;;;;;;;;;;4970353;28;20040;-90
2024/02/24 00:48:13;;;;;;;0.10;0.10;;;6.00;99.90;;;;;;4975509;28;20031;-89
2024/02/24 00:50:39;;;;;;;0.10;0.10;;;5.70;99.90;;;;;;4954895;28;20050;-90
2024/02/24 00:53:05;;;;;;;0.10;0.10;;;;;;;;;;4956352;28;20593;-89
2024/02/24 00:55:31;;;;;;;0.10;0.10;;;;;;;;;;4954505;28;20117;-90
2024/02/24 00:57:57;;;;;;;0.10;0.10;;;;;;;;;;4956262;28;20446;-91
2024/02/24 01:00:23;;;;;;;0.10;0.10;;;6.00;99.90;;;;;;4955052;28;20031;-90
2024/02/24 01:02:48;;;;;;;0.10;0.10;;;6.00;99.90;;;;;;4954057;28;20584;-89
2024/02/24 01:05:14;;;;;;;0.10;0.10;;;;;;;;;;4963202;28;20046;-89
2024/02/24 01:07:40;;;;;;;0.10;0.10;;;;;;;;;;4953188;28;20031;-91
2024/02/24 01:10:08;;;;;;;0.10;0.10;;;;;;;;;;4955331;28;20031;-91
2024/02/24 01:12:34;;;;;;;0.10;0.10;;;;;;;;;;4951500;28;20035;-91
2024/02/24 01:15:00;;;;;;;0.10;0.10;;;;;;;;;;4969299;28;20035;-90
2024/02/24 01:17:26;;;;;;;0.10;0.10;;;;;;;;;;4969360;28;20062;-90
2024/02/24 01:19:52;;;;;;;0.10;0.10;;;;;;;;;;4955309;28;20027;-91
2024/02/24 01:22:17;;;;;;;0.10;0.10;;;;;;;;;;4956743;28;20047;-91
2024/02/24 01:24:44;;;;;;;0.10;0.10;;;;;;;;;;4969287;28;20031;-90
2024/02/24 01:27:10;;;;;;;0.10;0.10;;;;;;;;;;4971248;28;20031;-91
2024/02/24 01:29:36;;;;;;;0.10;0.10;;;;;;;;;;4954609;28;20046;-90
2024/02/24 01:32:01;;;;;;;0.10;0.10;;;;;;;;;;4967625;28;20042;-90
2024/02/24 01:34:28;;;;;;;0.10;0.10;;;;;;;;;;4964462;28;20043;-90
2024/02/24 01:36:54;;;;;;;0.10;0.10;;;;;;;;;;4970028;28;20043;-89
2024/02/24 01:39:20;;;;;;;0.10;0.10;;;;;;;;;;4967334;28;20027;-90
2024/02/24 01:41:46;;;;;;;0.10;0.10;;;;;;;;;;4970922;28;20027;-90
2024/02/24 01:44:12;;;;;;;0.10;0.10;;;;;;;;;;4970646;28;20118;-91
2024/02/24 01:46:38;;;;;;;0.03;0.03;;;;;;;;;;4951082;28;20130;-90
2024/02/24 01:49:04;;;;;;;0.10;0.10;;;;;;;;;;4968869;28;20494;-90
2024/02/24 01:51:30;;;;;;;0.10;0.10;;;;;;;;;;4967500;28;20122;-91
2024/02/24 01:53:56;;;;;;;0.10;0.10;;;;;;;;;;4969032;28;20066;-90
2024/02/24 01:56:24;;;;;;;0.10;0.10;;;6.00;99.90;;;;;;4972161;28;20540;-89
2024/02/24 01:58:50;;;;;;;0.10;0.10;;;;;;;;;;4966648;28;20106;-90
2024/02/24 02:01:17;;;;;;;0.00;0.00;;;5.80;99.90;;;;;;4968208;28;20450;-90
2024/02/24 02:03:43;;;;;;;0.10;0.10;;;;;;;;;;4953976;28;20487;-89
2024/02/24 02:06:09;;;;;;;0.10;0.10;;;;;;;;;;4953751;28;20599;-90
2024/02/24 02:08:35;;;;;;;0.10;0.10;;;;;;;;;;4969350;28;20042;-92
2024/02/24 02:11:00;;;;;;;0.10;0.10;;;;;;;;;;4969056;28;20030;-88
2024/02/24 02:13:26;;;;;;;0.10;0.10;;;;;;;;;;4956355;28;20028;-91
2024/02/24 02:15:54;;;;;;;0.10;0.10;;;5.50;99.90;;;;;;4955962;28;20050;-91
2024/02/24 02:18:51;;;;;;;0.10;0.10;;;5.60;99.90;;;;;;4953304;28;20038;-91
2024/02/24 02:21:18;;;;;;;0.10;0.10;;;5.60;99.90;;;;;;4962141;28;20034;-90
2024/02/24 02:23:44;;;;;;;0.10;0.10;;;;;;;;;;4969313;28;20050;-89
2024/02/24 02:26:11;;;;;;;0.08;0.08;;;;;;;;;;4966666;28;20033;-91
2024/02/24 02:28:37;;;;;;;0.10;0.10;;;;;;;;;;4953821;28;20031;-90
2024/02/24 02:31:03;;;;;;;0.10;0.10;;;;;;;;;;4952434;28;20039;-90
2024/02/24 02:33:29;;;;;;;0.10;0.10;;;5.40;99.90;;;;;;4966905;28;20033;-91
2024/02/24 02:35:54;;;;;;;0.10;0.10;;;5.40;99.90;;;;;;4949792;28;20482;-90
2024/02/24 02:38:20;;;;;;;0.10;0.10;;;;;;;;;;4951624;28;20027;-90
2024/02/24 02:40:46;;;;;;;0.10;0.10;;;;;;;;;;4965011;28;20031;-88
2024/02/24 02:43:12;;;;;;;0.10;0.10;;;;;;;;;;4971167;28;20031;-90
2024/02/24 02:45:38;;;;;;;0.10;0.10;;;;;;;;;;4953472;28;20061;-91
2024/02/24 02:48:05;;;;;;;0.10;0.10;;;5.40;99.90;;;;;;4966156;28;20045;-90
2024/02/24 02:50:30;;;;;;;0.10;0.10;;;5.50;99.90;;;;;;4953457;28;20050;-90
2024/02/24 02:52:56;;;;;;;0.10;0.10;;;;;;;;;;4952510;28;20470;-90
2024/02/24 02:55:22;;;;;;;0.10;0.10;;;5.60;99.90;;;;;;4967303;28;20077;-90
2024/02/24 02:57:48;;;;;;;0.10;0.10;;;5.60;99.90;;;;;;4968098;28;20489;-87
2024/02/24 03:00:14;;;;;;;0.10;0.10;;;5.50;99.90;;;;;;4953123;28;20042;-91
2024/02/24 03:02:40;;;;;;;0.05;0.05;;;;;;;;;;4950715;28;20035;-90
2024/02/24 03:05:07;;;;;;;0.10;0.10;;;;;;;;;;4952819;28;20035;-91
2024/02/24 03:07:33;;;;;;;0.10;0.10;;;5.60;99.90;;;;;;4962357;28;20117;-91
2024/02/24 03:09:59;;;;;;;0.10;0.10;;;;;;;;;;4954866;28;20062;-91
2024/02/24 03:12:25;;;;;;;0.10;0.10;;;;;;;;;;4965297;28;20039;-91
2024/02/24 03:14:51;;;;;;;0.10;0.10;;;;;;;;;;4966917;28;20385;-91
2024/02/24 03:17:17;;;;;;;0.00;0.00;;;;;;;;;;4968524;28;20120;-90
2024/02/24 03:19:43;;;;;;;0.10;0.10;;;;;;;;;;4953509;28;20082;-92
2024/02/24 03:22:09;;;;;;;0.10;0.10;;;;;;;;;;4967683;28;20028;-90
2024/02/24 03:24:35;;;;;;;0.10;0.10;;;;;;;;;;4970019;28;20038;-91
2024/02/24 03:27:01;;;;;;;0.10;0.10;;;;;;;;;;4950824;28;20397;-90
2024/02/24 03:29:27;;;;;;;0.10;0.10;;;;;;;;;;4968574;28;20043;-91
2024/02/24 03:31:52;;;;;;;0.10;0.10;;;;;;;;;;4948379;28;20035;-88
2024/02/24 03:34:18;;;;;;;0.10;0.10;;;;;;;;;;4951653;28;20055;-91
2024/02/24 03:36:44;;;;;;;0.10;0.10;;;;;;;;;;4967823;28;20080;-90
2024/02/24 03:39:10;;;;;;;0.10;0.10;;;;;;;;;;4964117;28;20035;-90
2024/02/24 03:41:36;;;;;;;0.10;0.10;;;;;;;;;;4966159;28;20031;-91
2024/02/24 03:44:02;;;;;;;0.10;0.10;;;;;;;;;;4948189;28;20059;-89
2024/02/24 03:46:28;;;;;;;0.10;0.10;;;;;;;;;;4967322;28;20066;-92
2024/02/24 03:48:54;;;;;;;0.10;0.10;;;;;;;;;;4955715;28;20422;-91
2024/02/24 03:53:59;;;;;;;0.10;0.10;;;;;;;;;;5084247;27;20397;-91
2024/02/24 03:56:25;;;;;;;0.10;0.10;;;5.30;99.90;;;;;;5072032;28;20027;-91
2024/02/24 03:58:51;;;;;;;0.10;0.10;;;;;;;;;;5065148;28;20024;-92
2024/02/24 04:01:16;;;;;;;0.10;0.10;;;5.30;99.90;;;;;;5070859;28;20028;-91
2024/02/24 04:03:41;;;;;;;0.00;0.00;;;5.10;99.90;;;;;;5068385;28;20032;-91
2024/02/24 04:06:07;;;;;;;0.10;0.10;;;;;;;;;;5064927;28;20024;-90
2024/02/24 04:08:34;;;;;;;0.10;0.10;;;;;;;;;;5069677;28;20056;-90
2024/02/24 04:11:00;;;;;;;0.10;0.10;;;5.10;99.90;;;;;;5060096;28;20037;-90
2024/02/24 04:13:26;;;;;;;0.10;0.10;;;;;;;;;;5065774;28;20498;-90
2024/02/24 04:15:52;;;;;;;0.10;0.10;;;;;;;;;;5067450;28;20066;-90
2024/02/24 04:18:18;;;;;;;0.10;0.10;;;;;;;;;;5066393;28;20032;-90
2024/02/24 04:20:45;;;;;;;0.00;0.00;;;;;;;;;;5063034;28;20074;-90
2024/02/24 04:23:11;;;;;;;0.10;0.10;;;;;;;;;;5064852;28;20044;-90
2024/02/24 04:25:37;;;;;;;0.10;0.10;;;;;;;;;;5055790;28;20040;-90
2024/02/24 04:28:03;;;;;;;0.10;0.10;;;;;;;;;;5064832;28;20039;-91
2024/02/24 04:30:29;;;;;;;0.10;0.10;;;;;;;;;;5066425;28;20151;-88
2024/02/24 04:32:55;;;;;;;0.10;0.10;;;;;;;;;;5088051;28;20051;-90
2024/02/24 04:35:22;;;;;;;0.10;0.10;;;;;;;;;;5060189;28;20037;-91
2024/02/24 04:37:48;;;;;;;0.10;0.10;;;;;;;;;;5061845;28;20112;-90
2024/02/24 04:40:14;;;;;;;0.10;0.10;;;;;;;;;;5062351;28;20855;-89
2024/02/24 04:42:40;;;;;;;0.10;0.10;;;;;;;;;;5067627;28;20476;-90
2024/02/24 04:45:06;;;;;;;0.10;0.10;;;;;;;;;;5064726;28;20024;-91
2024/02/24 04:47:32;;;;;;;0.10;0.10;;;;;;;;;;5073290;28;20036;-91
2024/02/24 04:49:58;;;;;;;0.10;0.10;;;;;;;;;;5065124;28;20025;-90
2024/02/24 04:52:24;;;;;;;0.10;0.10;;;;;;;;;;5071092;28;20039;-91
2024/02/24 04:54:51;;;;;;;0.10;0.10;;;;;;;;;;5090870;28;20073;-91
2024/02/24 04:57:17;;;;;;;0.10;0.10;;;;;;;;;;5089082;28;20599;-91
2024/02/24 04:59:43;;;;;;;0.10;0.10;;;;;;;;;;5087173;28;20078;-91
2024/02/24 05:02:09;;;;;;;0.10;0.10;;;;;;;;;;5083572;28;20032;-90
2024/02/24 05:04:35;;;;;;;0.10;0.10;;;;;;;;;;5080885;28;20028;-90
2024/02/24 05:07:01;;;;;;;0.10;0.10;;;;;;;;;;5075948;28;20028;-89
2024/02/24 05:09:26;;;;;;;0.10;0.10;;;;;;;;;;5067986;28;20029;-91
2024/02/24 05:11:52;;;;;;;0.10;0.10;;;;;;;;;;5072094;28;20028;-91
2024/02/24 05:14:18;;;;;;;0.08;0.08;;;;;;;;;;5074153;28;20384;-91
2024/02/24 05:16:44;;;;;;;0.10;0.10;;;5.40;99.90;;;;;;5074653;28;20043;-91
2024/02/24 05:19:10;;;;;;;0.10;0.10;;;5.30;99.90;;;;;;5071225;28;20032;-90
2024/02/24 05:21:36;;;;;;;0.10;0.10;;;;;;;;;;5071703;28;20544;-91
2024/02/24 05:24:02;;;;;;;0.10;0.10;;;;;;;;;;5072925;28;20394;-89
2024/02/24 05:26:29;;;;;;;0.10;0.10;;;5.80;99.90;;;;;;5079193;28;20103;-91
2024/02/24 05:28:56;;;;;;;0.10;0.10;;;;;;;;;;5070466;28;20021;-91
2024/02/24 05:31:22;;;;;;;0.10;0.10;;;;;;;;;;5069384;28;20024;-91
2024/02/24 05:33:48;;;;;;;0.10;0.10;;;;;;;;;;5075489;28;20036;-90
2024/02/24 05:36:14;;;;;;;0.10;0.10;;;;;;;;;;5071563;28;20020;-90
2024/02/24 05:38:40;;;;;;;0.10;0.10;;;6.00;99.90;;;;;;5069616;28;20044;-91
2024/02/24 05:41:06;;;;;;;0.10;0.10;;;;;;;;;;5069311;28;20032;-91
2024/02/24 05:43:32;;;;;;;0.00;0.00;;;;;;;;;;5067575;28;20028;-89
2024/02/24 05:45:59;;;;;;;0.10;0.10;;;;;;;;;;5070791;28;20041;-91
2024/02/24 05:48:26;;;;;;;0.10;0.10;;;;;;;;;;5068877;28;20033;-90
2024/02/24 05:50:52;;;;;;;0.10;0.10;;;;;;;;;;5072978;28;20040;-89
2024/02/24 05:53:18;;;;;;;0.10;0.10;;;;;;;;;;5073535;28;20044;-90
2024/02/24 05:55:46;;;;;;;0.10;0.10;;;;;;;;;;5068105;28;20021;-90
2024/02/24 05:58:12;;;;;;;0.10;0.10;;;;;;;;;;5067179;28;20032;-91
2024/02/24 06:00:39;;;;;;;0.10;0.10;;;;;;;;;;5062803;28;20075;-91
2024/02/24 06:03:10;;;;;;;0.10;0.10;;;;;;;;;;5062211;28;20061;-90
2024/02/24 06:05:36;;;;;;;0.10;0.10;;;;;;;;;;5072736;28;20512;-90
2024/02/24 06:08:02;;;;;;;0.10;0.10;;;;;;;;;;5072185;28;20036;-90
2024/02/24 06:10:28;;;;;;;0.10;0.10;;;;;;;;;;5073437;28;20075;-90
2024/02/24 06:12:54;;;;;;;0.10;0.10;;;6.20;99.90;;;;;;5079991;28;20036;-90
2024/02/24 06:15:20;;;;;;;0.10;0.10;;;;;;;;;;5067227;28;20024;-90
2024/02/24 06:17:45;;;;;;;0.10;0.10;;;6.30;99.90;;;;;;5076670;28;20031;-90
2024/02/24 06:20:12;;;;;;;0.10;0.10;;;;;;;;;;5060301;28;20551;-90
2024/02/24 06:22:38;;;;;;;0.10;0.10;;;;;;;;;;5069914;28;20033;-90
2024/02/24 06:25:04;;;;;;;0.10;0.10;;;;;;;;;;5068619;28;20402;-90
2024/02/24 06:27:31;;;;;;;0.10;0.10;;;;;;;;;;5073152;28;20610;-90
2024/02/24 06:29:57;;;;;;;0.10;0.10;;;;;;;;;;5065479;28;20119;-89
2024/02/24 06:32:23;;;;;;;0.10;0.10;;;;;;;;;;5072328;28;20413;-90
2024/02/24 06:34:49;;;;;;;0.10;0.10;;;;;;;;;;5073790;28;20027;-91
2024/02/24 06:37:14;;;;;;;0.10;0.10;;;;;;;;;;5073909;28;20028;-89
2024/02/24 06:39:40;;;;;;;0.10;0.10;;;;;;;;;;5065991;28;20119;-90
2024/02/24 06:42:06;;;;;;;0.10;0.10;;;;;;;;;;5069959;28;20103;-90
2024/02/24 06:44:32;;;;;;;0.10;0.10;;;;;;;;;;5069405;28;20036;-90
2024/02/24 06:46:58;;;;;;;0.10;0.10;;;6.70;99.90;;;;;;5074375;28;20569;-90
2024/02/24 06:49:24;;;;;;;0.10;0.10;;;;;;;;;;5066468;28;20039;-90
2024/02/24 06:51:51;;;;;;;0.10;0.10;;;;;;;;;;5061712;28;20453;-91
2024/02/24 06:54:17;;;;;;;0.10;0.10;;;;;;;;;;5069412;28;20029;-90
2024/02/24 06:56:43;;;;;;;0.10;0.10;;;;;;;;;;5080837;28;20038;-90
2024/02/24 06:59:09;;;;;;;0.10;0.10;;;;;;;;;;5069227;28;20035;-90
2024/02/24 07:01:35;;;;;;;0.10;0.10;;;;;;;;;;5067791;28;20032;-90
2024/02/24 07:04:01;;;;;;;0.10;0.10;;;;;;;;;;5065192;28;20093;-90
2024/02/24 07:06:27;;;;;;;0.10;0.10;;;;;;;;;;5066962;28;20483;-90
2024/02/24 07:08:53;;;;;;;0.10;0.10;;;;;;;;;;5062281;28;20047;-91
2024/02/24 07:11:19;;;;;;;0.10;0.10;;;;;;;;;;5066259;28;20037;-91
2024/02/24 07:13:45;;;;;;;0.10;0.10;;;;;;;;;;5066996;28;20036;-92
2024/02/24 07:16:13;;;;;;;0.10;0.10;;;;;;;;;;5070180;28;20028;-90
2024/02/24 07:18:39;;;;;;;0.05;0.05;;;;;;;;;;5070868;28;20872;-89
2024/02/24 07:21:06;;;;;;;0.10;0.10;;;;;;;;;;5071700;28;20039;-90
2024/02/24 07:23:32;;;;;;;0.10;0.10;;;;;;;;;;5065425;28;20067;-90
2024/02/24 07:26:01;;;;;;;0.10;0.10;;;;;;;;;;5072419;28;20036;-90
2024/02/24 07:28:27;;;;;;;0.10;0.10;;;;;;;;;;5063747;28;20059;-90
2024/02/24 07:30:53;;;;;;;0.10;0.10;;;;;;;;;;5068034;28;20504;-91
2024/02/24 07:33:19;;;;;;;0.10;0.10;;;;;;;;;;5065529;28;20143;-90
2024/02/24 07:35:45;;;;;;;0.10;0.10;;;;;;;;;;5073430;28;20115;-90
2024/02/24 07:38:11;;;;;;;0.08;0.08;;;;;;;;;;5070822;28;20024;-90
2024/02/24 07:40:37;;;;;;;0.10;0.10;;;;;;;;;;5069500;28;20035;-90
2024/02/24 07:43:03;;;;;;;0.10;0.10;;;;;;;;;;5071208;28;20035;-91
2024/02/24 07:45:29;;;;;;;0.10;0.10;;;;;;;;;;5067614;28;20111;-90
2024/02/24 07:47:55;;;;;;;0.10;0.10;;;;;;;;;;5077187;28;20034;-89
2024/02/24 07:50:21;;;;;;;0.10;0.10;;;;;;;;;;5067565;28;20028;-90
2024/02/24 07:52:47;;;;;;;0.10;0.10;;;6.90;99.90;;;;;;5071161;28;20056;-92
2024/02/24 07:55:12;;;;;;;0.10;0.10;;;7.70;99.90;;;;;;5062912;28;20059;-91
2024/02/24 07:57:38;;;;;;;0.10;0.10;;;7.00;99.90;;;;;;5066413;28;20455;-90
2024/02/24 08:00:05;;;;;;;0.10;0.10;;;;;;;;;;5064110;28;20024;-90
2024/02/24 08:02:31;;;;;;;0.05;0.05;;;;;;;;;;5070802;28;20056;-89
2024/02/24 08:04:57;;;;;;;0.10;0.10;;;;;;;;;;5073109;28;20143;-89
2024/02/24 08:07:23;;;;;;;0.10;0.10;;;;;;;;;;5068135;28;20024;-90
2024/02/24 08:09:49;;;;;;;0.10;0.10;;;;;;;;;;5065792;28;20570;-91
2024/02/24 08:12:15;;;;;;;0.10;0.10;;;;;;;;;;5073049;28;20081;-89
2024/02/24 08:14:41;;;;;;;0.10;0.10;;;;;;;;;;5088555;28;20029;-90
2024/02/24 08:17:07;;;;;;;0.10;0.10;;;;;;;;;;5064488;28;20029;-90
2024/02/24 08:19:34;;;;;;;0.00;0.00;;;;;;;;;;5073893;28;20051;-90
2024/02/24 08:22:03;;;;;;;0.10;0.10;;;;;;;;;;5069397;28;20039;-90
2024/02/24 08:24:29;;;;;;;0.03;0.03;;;;;;;;;;5066665;28;20025;-90
2024/02/24 08:26:55;;;;;;;0.10;0.10;;;;;;;;;;5073006;28;20028;-91
2024/02/24 08:29:20;;;;;;;0.10;0.10;;;7.80;99.90;;;;;;5073758;28;20475;-88
2024/02/24 08:31:46;;;;;;;0.10;0.10;;;;;;;;;;5071568;28;20032;-90
2024/02/24 08:34:12;;;;;;;0.10;0.10;;;;;;;;;;5069845;28;20565;-90
2024/02/24 08:36:38;;;;;;;0.10;0.10;;;;;;;;;;5063676;28;20028;-90
2024/02/24 08:39:17;;;;;;;0.10;0.10;;;;;;;;;;5070523;28;20020;-89
2024/02/24 08:45:11;;;;;;;0.10;0.10;;;;;;;;;;4983373;28;20041;-91
2024/02/24 08:47:37;;;;;;;0.10;0.10;;;;;;;;;;4987680;28;20030;-91
2024/02/24 08:50:03;;;;;;;0.10;0.10;;;;;;;;;;5050687;28;20038;-91
2024/02/24 08:52:29;;;;;;;0.10;0.10;;;;;;;;;;4980424;28;20252;-89
2024/02/24 08:54:55;;;;;;;0.10;0.10;;;;;;;;;;4970351;28;20031;-89
2024/02/24 08:57:21;;;;;;;0.10;0.10;;;;;;;;;;4976202;28;20035;-89
2024/02/24 08:59:51;;;;;;;0.10;0.10;;;8.30;99.90;;;;;;4974619;28;20092;-91
2024/02/24 09:02:19;;;;;;;0.10;0.10;;;;;;;;;;4987299;28;20067;-90
2024/02/24 09:04:45;;;;;;;0.10;0.10;;;;;;;;;;4970918;28;20042;-90
2024/02/24 09:07:10;;;;;;;0.10;0.10;;;;;;;;;;4969294;28;20035;-92
2024/02/24 09:09:36;;;;;;;0.00;0.00;;;;;;;;;;4977854;28;20027;-89
2024/02/24 09:12:02;;;;;;;0.10;0.10;;;;;;;;;;4969053;28;20073;-90
2024/02/24 09:14:28;;;;;;;0.10;0.10;;;;;;;;;;4969314;28;20031;-88
2024/02/24 09:16:55;;;;;;;0.10;0.10;;;;;;;;;;4971108;28;20038;-88
2024/02/24 09:19:22;;;;;;;0.10;0.10;;;;;;;;;;4976442;28;20035;-89
2024/02/24 09:21:48;;;;;;;0.10;0.10;;;;;;;;;;4963530;28;20035;-90
2024/02/24 09:24:14;;;;;;;0.10;0.10;;;;;;;;;;4977733;28;20470;-90
2024/02/24 09:26:40;;;;;;;0.10;0.10;;;8.80;99.90;;;;;;4968460;28;20026;-89
2024/02/24 09:29:06;;;;;;;0.10;0.10;;;;;;;;;;4981459;28;20083;-90
2024/02/24 09:31:33;;;;;;;0.00;0.00;;;;;;;;;;4964296;28;20027;-89
2024/02/24 09:33:59;;;;;;;0.10;0.10;;;;;;;;;;4968847;28;20413;-88
2024/02/24 09:36:25;;;;;;;0.00;0.00;;;;;;;;;;4966495;28;20027;-89
2024/02/24 09:38:51;;;;;;;0.00;0.00;;;;;;;;;;4976189;28;20031;-89
2024/02/24 09:41:18;;;;;;;0.10;0.10;;;9.10;99.90;;;;;;4967347;28;20069;-90
2024/02/24 09:43:44;;;;;;;0.10;0.10;;;9.00;99.90;;;;;;4971577;28;20405;-90
2024/02/24 09:46:10;;;;;;;0.10;0.10;;;;;;;;;;4974939;28;20035;-90
2024/02/24 09:48:36;;;;;;;0.10;0.10;;;;;;;;;;4969854;28;20317;-89
2024/02/24 09:51:04;;;;;;;0.10;0.10;;;;;;;;;;4981441;28;20059;-89
2024/02/24 09:53:30;;;;;;;0.10;0.10;;;;;;;;;;4972346;28;20041;-90
2024/02/24 09:55:56;;;;;;;0.10;0.10;;;8.50;99.90;;;;;;4966687;28;20061;-87
2024/02/24 09:58:23;;;;;;;0.10;0.10;;;8.40;99.90;;;;;;4978241;28;20091;-90
2024/02/24 10:00:52;;;;;;;0.10;0.10;;;8.60;99.90;;;;;;4967453;28;20555;-89
2024/02/24 10:03:18;;;;;;;0.10;0.10;;;8.50;99.90;;;;;;4975895;28;20042;-89
2024/02/24 10:05:48;;;;;;;0.10;0.10;;;8.30;99.90;;;;;;4972698;28;20400;-90
2024/02/24 10:08:14;;;;;;;0.10;0.10;;;8.50;99.90;;;;;;4981125;28;20039;-90
2024/02/24 10:10:39;;;;;;;0.10;0.10;;;;;;;;;;4976769;28;20180;-89
2024/02/24 10:13:05;;;;;;;0.10;0.10;;;;;;;;;;4970888;28;20060;-90
2024/02/24 10:15:33;;;;;;;0.00;0.00;;;;;;;;;;4974375;28;20176;-88
2024/02/24 10:17:59;;;;;;;0.00;0.00;;;8.90;99.90;;;;;;4972386;28;20026;-89
2024/02/24 10:20:25;;;;;;;0.10;0.10;;;9.00;99.90;;;;;;4974567;28;20424;-90
2024/02/24 10:22:50;;;;;;;0.10;0.10;;;9.10;99.90;;;;;;4991148;28;20034;-90
2024/02/24 10:25:17;;;;;;;0.10;0.10;;;;;;;;;;4985615;28;20389;-90
2024/02/24 10:27:43;;;;;;;0.00;0.00;;;9.30;99.90;;;;;;4987551;28;20053;-90
2024/02/24 10:30:10;;;;;;;0.00;0.00;;;9.40;99.90;;;;;;4976081;28;20041;-91
2024/02/24 10:32:36;;;;;;;0.00;0.00;;;9.50;99.90;;;;;;4986674;28;20035;-90
2024/02/24 10:35:05;;;;;;;0.00;0.00;;;9.40;99.90;;;;;;4977342;28;20053;-91
2024/02/24 10:37:32;;;;;;;0.00;0.00;;;;;;;;;;4970932;28;20085;-90
2024/02/24 10:40:00;;;;;;;0.00;0.00;;;9.70;99.90;;;;;;4979734;28;20030;-90
2024/02/24 10:42:28;;;;;;;0.00;0.00;;;;;;;;;;4968530;28;20166;-90
2024/02/24 10:44:54;;;;;;;0.03;0.03;;;;;;;;;;4977170;28;20663;-87
2024/02/24 10:47:20;;;;;;;0.00;0.00;;;;;;;;;;4972636;28;20080;-90
2024/02/24 10:49:46;;;;;;;0.00;0.00;;;;;;;;;;4970206;28;20035;-89
2024/02/24 10:52:14;;;;;;;0.00;0.00;;;9.80;99.90;;;;;;4970189;28;20039;-88
2024/02/24 10:54:42;;;;;;;0.00;0.00;;;;;;;;;;4972796;28;20026;-90
2024/02/24 10:57:08;;;;;;;0.00;0.00;;;;;;;;;;4973326;28;20031;-89
2024/02/24 10:59:34;;;;;;;0.00;0.00;;;;;;;;;;4975336;28;20025;-89
2024/02/24 11:02:01;;;;;;;0.10;0.10;;;10.20;99.90;;;;;;4966651;28;20027;-90
2024/02/24 11:04:27;;;;;;;0.00;0.00;;;;;;;;;;4968886;28;20077;-89
2024/02/24 11:06:55;;;;;;;0.00;0.00;;;10.60;99.90;;;;;;4969300;28;20031;-89
2024/02/24 11:09:21;;;;;;;0.00;0.00;;;;;;;;;;4988717;28;20024;-89
2024/02/24 11:11:47;;;;;;;0.00;0.00;;;;;;;;;;4970347;28;20031;-91
2024/02/24 11:14:16;;;;;;;0.00;0.00;;;10.20;99.90;;;;;;4967812;28;20019;-90
2024/02/24 11:16:43;;;;;;;0.00;0.00;;;;;;;;;;4966686;28;20107;-90
2024/02/24 11:19:12;;;;;;;0.00;0.00;;;;;;;;;;4964788;28;20049;-89
2024/02/24 11:22:01;;;;;;;0.00;0.00;;;10.00;99.90;;;;;;4973453;28;20143;-89
2024/02/24 11:24:31;;;;;;;0.00;0.00;;;;;;;;;;4996206;28;20026;-89
2024/02/24 11:26:56;;;;;;;;;;;9.90;99.90;;;;;;4995264;28;20047;-89
2024/02/24 11:29:26;;;;;;;0.00;0.00;;;9.80;99.90;;;;;;4972519;28;19922;-89
2024/02/24 11:32:08;;;;;;;0.00;0.00;;;9.80;99.90;;;;;;4972949;28;20031;-88
2024/02/24 11:34:35;;;;;;;0.00;0.00;;;9.70;99.90;;;;;;4983771;28;20028;-91
2024/02/24 11:37:01;;;;;;;0.00;0.00;;;;;;;;;;4982011;28;20157;-91
2024/02/24 11:39:28;;;;;;;0.00;0.00;;;9.50;99.90;;;;;;4977563;28;20031;-89
2024/02/24 11:41:55;;;;;;;0.00;0.00;;;9.50;99.90;;;;;;4968061;28;20031;-91
2024/02/24 11:44:21;;;;;;;0.00;0.00;;;;;;;;;;4984485;28;20019;-90
2024/02/24 11:46:47;;;;;;;0.00;0.00;;;9.60;99.90;;;;;;4970211;28;20110;-89
2024/02/24 11:49:14;;;;;;;0.08;0.08;;;9.40;99.90;;;;;;4967049;28;20031;-91
2024/02/24 11:51:40;;;;;;;0.00;0.00;;;;;;;;;;4973689;28;20498;-91
2024/02/24 11:54:07;;;;;;;0.00;0.00;;;;;;;;;;4975534;28;20515;-90
2024/02/24 11:56:35;;;;;;;0.00;0.00;;;;;;;;;;4970606;28;20031;-89
2024/02/24 11:59:01;;;;;;;0.00;0.00;;;;;;;;;;4976003;28;20507;-90
2024/02/24 12:01:28;;;;;;;0.00;0.00;;;;;;;;;;4969381;28;20118;-90
2024/02/24 12:03:57;;;;;;;0.00;0.00;;;;;;;;;;4970282;28;20117;-91
2024/02/24 12:06:25;;;;;;;0.00;0.00;;;9.10;99.90;;;;;;4974436;28;20102;-91
2024/02/24 12:08:51;;;;;;;0.00;0.00;;;;;;;;;;4972182;28;20038;-90
2024/02/24 12:11:17;;;;;;;0.00;0.00;;;;;;;;;;4963990;28;22270;-90
2024/02/24 12:13:45;;;;;;;0.00;0.00;;;9.60;99.90;;;;;;4967910;28;20505;-90
2024/02/24 12:16:11;;;;;;;0.00;0.00;;;;;;;;;;4980570;28;20110;-91
2024/02/24 12:18:41;;;;;;;0.00;0.00;;;10.10;99.90;;;;;;4972141;28;20058;-90
2024/02/24 12:21:07;;;;;;;0.00;0.00;;;;;;;;;;4988529;28;20035;-89
2024/02/24 12:23:40;;;;;;;0.00;0.00;;;10.40;99.90;;;;;;4973021;28;20035;-90
2024/02/24 12:26:13;;;;;;;0.00;0.00;;;10.20;99.90;;;;;;4969295;28;20035;-91
2024/02/24 12:28:39;;;;;;;0.00;0.00;;;;;;;;;;4976192;28;20035;-90
2024/02/24 12:31:08;;;;;;;0.00;0.00;;;;;;;;;;4982899;28;20374;-90
2024/02/24 12:33:39;;;;;;;0.00;0.00;;;9.30;99.90;;;;;;4971853;28;20035;-89
2024/02/24 12:36:08;;;;;;;0.00;0.00;;;;;;;;;;4973154;28;20110;-90
2024/02/24 12:38:34;;;;;;;0.10;0.10;;;;;;;;;;4971801;28;20023;-91
2024/02/24 12:41:07;;;;;;;0.00;0.00;;;8.40;99.90;;;;;;4976422;28;20035;-89
2024/02/24 12:43:34;;;;;;;0.10;0.10;;;;;;;;;;4972189;28;20042;-90
2024/02/24 12:46:00;;;;;;;0.10;0.10;;;;;;;;;;4973774;28;20531;-90
2024/02/24 12:48:26;;;;;;;0.10;0.10;;;;;;;;;;4969074;28;20027;-89
2024/02/24 12:50:52;;;;;;;0.10;0.10;;;;;;;;;;4979751;28;20029;-89
2024/02/24 12:53:19;;;;;;;0.00;0.00;;;7.90;99.90;;;;;;4974390;28;20065;-90
2024/02/24 12:55:45;;;;;;;0.10;0.10;;;;;;;;;;4972958;28;20038;-89
2024/02/24 12:58:10;;;;;;;0.10;0.10;;;9.20;99.90;;;;;;4972654;28;20022;-90
2024/02/24 13:00:36;;;;;;;0.10;0.10;;;;;;;;;;4977181;28;20462;-90
2024/02/24 13:03:02;;;;;;;0.10;0.10;;;8.50;99.90;;;;;;4972107;28;20030;-89
2024/02/24 13:05:27;;;;;;;0.10;0.10;;;8.70;99.90;;;;;;4970877;28;20484;-89
2024/02/24 13:07:53;;;;;;;0.00;0.00;;;;;;;;;;4986768;28;20118;-89
2024/02/24 13:10:20;;;;;;;0.00;0.00;;;8.70;99.90;;;;;;4968721;28;20046;-90
2024/02/24 13:12:46;;;;;;;0.10;0.10;;;;;;;;;;4975994;28;20524;-90
2024/02/24 13:15:12;;;;;;;0.10;0.10;;;;;;;;;;4969485;28;20035;-89
2024/02/24 13:17:38;;;;;;;0.08;0.08;;;;;;;;;;4984630;28;20046;-91
2024/02/24 13:20:04;;;;;;;0.10;0.10;;;;;;;;;;4972911;28;20128;-90
2024/02/24 13:22:30;;;;;;;0.10;0.10;;;;;;;;;;4979933;28;20142;-89
2024/02/24 13:24:55;;;;;;;0.10;0.10;;;;;;;;;;4968510;28;20061;-89
2024/02/24 13:27:21;;;;;;;0.00;0.00;;;;;;;;;;4988291;28;20122;-90
2024/02/24 13:29:47;;;;;;;0.10;0.10;;;;;;;;;;4974714;28;20054;-90
2024/02/24 13:32:13;;;;;;;0.10;0.10;;;;;;;;;;4971696;28;20035;-90
2024/02/24 13:34:39;;;;;;;0.00;0.00;;;;;;;;;;4970534;28;20027;-89
2024/02/24 13:37:05;;;;;;;0.00;0.00;;;;;;;;;;4989047;28;20027;-91
2024/02/24 13:39:31;;;;;;;0.00;0.00;;;;;;;;;;4980047;28;20053;-89
2024/02/24 13:41:57;;;;;;;0.10;0.10;;;;;;;;;;4976320;28;20553;-88
2024/02/24 13:44:23;;;;;;;0.05;0.05;;;8.30;99.90;;;;;;4986192;28;20402;-89
2024/02/24 13:46:49;;;;;;;0.00;0.00;;;;;;;;;;4974809;28;20843;-89
2024/02/24 13:49:17;;;;;;;0.00;0.00;;;;;;;;;;4982402;28;20046;-89
2024/02/24 13:51:43;;;;;;;0.10;0.10;;;;;;;;;;4971860;28;20023;-90
2024/02/24 13:54:09;;;;;;;0.00;0.00;;;;;;;;;;4972482;28;20041;-91
2024/02/24 13:56:35;;;;;;;0.10;0.10;;;;;;;;;;4979984;28;20066;-90
2024/02/24 13:59:01;;;;;;;0.10;0.10;;;;;;;;;;4979490;28;20425;-90
2024/02/24 14:01:27;;;;;;;0.00;0.00;;;;;;;;;;4969267;28;20113;-89
2024/02/24 14:03:53;;;;;;;0.00;0.00;;;;;;;;;;4967987;28;20127;-90
2024/02/24 14:06:19;;;;;;;0.00;0.00;;;;;;;;;;4974812;28;20058;-89
2024/02/24 14:08:45;;;;;;;0.00;0.00;;;;;;;;;;4992053;28;20030;-89
2024/02/24 14:11:11;;;;;;;0.08;0.08;;;;;;;;;;4986134;28;20088;-89
2024/02/24 14:13:37;;;;;;;0.10;0.10;;;;;;;;;;4973459;28;20037;-89
2024/02/24 14:16:03;;;;;;;0.10;0.10;;;;;;;;;;4972798;28;20031;-89